Seven Corners, Virginia
Current Conditions -  °F | °C
As of 12:52 PM on Thursday 29 Jan 2015 (Local Time) from KDCA Reporting Station
Overcast Overcast  
Wind Chill: 30°   Ceiling: 11000
Heat Index: 37°   Visibility: 10mi
Dew Point: 13°   Wind: 10mph
Humidity: 37%   Direction: 180°S
Pressure: 30.21"   Gusts: NA
Location:  38.8591°N, 77.1567°W
Report Text: KDCA 291752Z 18009KT 10SM BKN110 OVC200 03/M11 A3021 RMK AO2 PRESFR SLP229 T00281106 10028 21028 58038
Loading
Personal Weather Stations






























Interactive Weather Map New forecast layout! Learn more

10-Day Weather Forecast

Advertisements
Track Severe Weather on mobile